Bewolking Meer informatie Parkstad Weather Satellite


Neerslagradar Meer informatie Parkstad Rain Snow Radar


Onweersbuien Meer informatie Parkstad Lighntning


24/7 Weercamera Meer informatie Parkstad Weathercam


Natuurbrandrisico
CBI







METAR rapporten vliegvelden

   
EHAM - Amsterdam
Gewijzigd: 14-06-2024 11:55
Grotendeels bewolkt  
Grotendeels bewolkt  
   Wind: Zuiden 24.1 km/h
Wind: Zuiden 24.1 km/h
Temperatuur: 15°C
Dauwpunt: 12°C
Vochtigheid: 82%
Barometer: 1005 hPa
Satelliet beelden: Grotendeels bewolkt
Zicht: meer dan 10 km
Bewolking: Licht bewolkt 366 m,
Grotendeels bewolkt 488 m
EHAM 140955Z 19013KT 160V220 9999 FEW012 BKN016 15/12 Q1005 TEMPO 7000 -DZ BKN014
EBAW - Antwerpen
Gewijzigd: 14-06-2024 11:50
Bewolking  
Bewolking  
   Wind: Zuiden 16.7 km/h
Wind: Zuiden 16.7 km/h
Temperatuur: 15°C
Dauwpunt: 11°C
Vochtigheid: 77%
Barometer: 1006 hPa
Satelliet beelden: Bewolking
Zicht: meer dan 10 km
Bewolking: Bewolking 549 m
EBAW 140950Z 19009KT 160V220 9999 OVC018 15/11 Q1006 TEMPO BKN012
EGLL - London
Gewijzigd: 14-06-2024 11:50
Grotendeels bewolkt  
Grotendeels bewolkt  
   Wind: ZZW 20.4 km/h
Wind: ZZW 20.4 km/h
Temperatuur: 17°C
Dauwpunt: 10°C
Vochtigheid: 64%
Barometer: 1001 hPa
Satelliet beelden: Grotendeels bewolkt
Zicht: meer dan 10 km
Bewolking: Gedeeltelijk bewolkt 853 m,
Grotendeels bewolkt 1128 m,
Grotendeels bewolkt 1341 m
EGLL 140950Z AUTO 21011KT 9999 SCT028 BKN037 BKN044 17/10 Q1001
ELLX - Luxemburg
Gewijzigd: 14-06-2024 11:50
Lichte (mot)regen, Grotendeels bewolkt  
Lichte (mot)regen, Grotendeels bewolkt  
   Wind: Zuiden 18.5 km/h
Wind: Zuiden 18.5 km/h
Temperatuur: 12°C
Dauwpunt: 11°C
Vochtigheid: 94%
Barometer: 1010 hPa
Satelliet beelden: Grotendeels bewolkt
Zicht: 5 km
Bewolking: Grotendeels bewolkt 122 m
ELLX 140950Z 18010KT 150V210 5000 -DZ BKN004 12/11 Q1010 TEMPO BKN007
EDDM - München
Gewijzigd: 14-06-2024 11:50
Wat regen mogelijk, Licht bewolkt  
Wat regen mogelijk, Licht bewolkt  
   Wind: NW 16.7 km/h
Wind: NW 16.7 km/h
Temperatuur: 17°C
Dauwpunt: 9°C
Vochtigheid: 59%
Barometer: 1015 hPa
Satelliet beelden: Licht bewolkt
Zicht: meer dan 10 km
Bewolking: Licht bewolkt 1219 m
EDDM 140950Z AUTO 32009KT 280V340 9999 -RA FEW040 17/09 Q1015 NOSIG
LFPO - Parijs
Gewijzigd: 14-06-2024 12:00
Grotendeels bewolkt  
Grotendeels bewolkt  
   Wind: WZW 24.1 km/h
Wind: WZW 24.1 km/h
Temperatuur: 18°C
Dauwpunt: 12°C
Vochtigheid: 68%
Barometer: 1008 hPa
Satelliet beelden: Grotendeels bewolkt
Zicht: meer dan 10 km
Bewolking: Gedeeltelijk bewolkt 793 m,
Grotendeels bewolkt 1311 m
LFPO 141000Z 24013KT 9999 SCT026 BKN043 18/12 Q1008 NOSIG
EDDL - Düsseldorf
Gewijzigd: 14-06-2024 11:50
Bewolking  
Bewolking  
   Wind: Zuiden 22.2 km/h
Wind: Zuiden 22.2 km/h
Temperatuur: 17°C
Dauwpunt: 11°C
Vochtigheid: 68%
Barometer: 1008 hPa
Satelliet beelden: Bewolking
Zicht: meer dan 10 km
Bewolking: Licht bewolkt 884 m,
Bewolking 1097 m
EDDL 140950Z AUTO 18012KT 140V210 9999 FEW029 OVC036 17/11 Q1008 NOSIG
EDDK - Köln/Bonn Duitsland
Gewijzigd: 14-06-2024 11:50
Grotendeels bewolkt  
Grotendeels bewolkt  
   Wind: ZZO 20.4 km/h
Wind: ZZO 20.4 km/h
Temperatuur: 16°C
Dauwpunt: 11°C
Vochtigheid: 72%
Barometer: 1009 hPa
Satelliet beelden: Grotendeels bewolkt
Zicht: meer dan 10 km
Bewolking: Licht bewolkt 732 m,
Grotendeels bewolkt 914 m
EDDK 140950Z AUTO 16011KT 130V190 9999 FEW024 BKN030 16/11 Q1009 NOSIG
TNCA - Oranjestad Aruba
Gewijzigd: 14-06-2024 12:00
Nabijgelegen buien, Gedeeltelijk bewolkt  
Nabijgelegen buien, Gedeeltelijk bewolkt  
   Wind: OZO 18.5 km/h
Wind: OZO 18.5 km/h
Temperatuur: 28°C
Gevoelstemperatuur: 33°C
Dauwpunt: 25°C
Vochtigheid: 84%
Barometer: 1012 hPa
Satelliet beelden: Gedeeltelijk bewolkt
Zicht: meer dan 10 km
Bewolking: Gedeeltelijk bewolkt 488 m
TNCA 141000Z 11010KT 9999 VCSH SCT016 28/25 Q1012 NOSIG
TNCC - Willemstad Curacao
Gewijzigd: 14-06-2024 12:00
Licht bewolkt  
Licht bewolkt  
   Wind: Oosten 18.5 km/h
Wind: Oosten 18.5 km/h
Temperatuur: 28°C
Gevoelstemperatuur: 33°C
Dauwpunt: 25°C
Vochtigheid: 84%
Barometer: 1012 hPa
Satelliet beelden: Licht bewolkt
Zicht: meer dan 10 km
Bewolking: Licht bewolkt 549 m
TNCC 141000Z 10010KT 9999 FEW018 28/25 Q1012 NOSIG=
LEAL - La Nucia Spanje
Gewijzigd: 14-06-2024 12:00
Helder  
Helder  
   Wind: Zuiden 7.4 km/h
Wind: Zuiden 7.4 km/h
Temperatuur: 29°C
Dauwpunt: 9°C
Vochtigheid: 29%
Barometer: 1016 hPa
Zicht: meer dan 10 km
Bewolking: Helder
LEAL 141000Z 18004KT 110V250 CAVOK 29/09 Q1016 NOSIG
 

Script ontwikkeld door  Saratoga-weather.org Aangepast voor de template door  Weerstation Leuven

U vindt ons ook hier:

Het Weer Aktueel

WOW Nederland KNMI

Vereniging voor Weerkunde en Klimatologie

UK Met Office Weather Observation Website (WOW)

WeatherCloud

Weather Underground

Awekas

MeteoMap.Cloud

HAMweather, WeatherForYou, PWS Weather

Citizen Weather Observer Program (CWOP)

Apparatuur in gebruik:

Weerstation
Vantage Pro2+ UV

Weercomputer's
alix3d2 & wl330n

Weerprogramma's
Smartbedded

Satelliet NOAA's
WRX137 & KX137

Satelliet Eumetsat
Ayecka SR1 & Triax

Bliksemdetectie
Boltek StormTracker

Webleverancier
Netwerkplek

Vantage Pro2+ UV

alix3d2 & wl330n

Smartbedded

WRX137 & KX137

Ayecka SR1 & Triax

Boltek StormTracker

Netwerkplek